sensor_id;sensor_type;location;lat;lon;timestamp;temperature;humidity
61386;DHT22;47256;18.904;-99.054;2023-03-23T00:01:28;31.70;33.90
61386;DHT22;47256;18.904;-99.054;2023-03-23T00:03:58;31.70;34.60
61386;DHT22;47256;18.904;-99.054;2023-03-23T00:06:26;31.70;35.50
61386;DHT22;47256;18.904;-99.054;2023-03-23T00:08:55;31.60;35.40
61386;DHT22;47256;18.904;-99.054;2023-03-23T00:11:26;31.60;35.40
61386;DHT22;47256;18.904;-99.054;2023-03-23T00:13:55;31.50;36.30
61386;DHT22;47256;18.904;-99.054;2023-03-23T00:16:25;31.50;37.50
61386;DHT22;47256;18.904;-99.054;2023-03-23T00:19:05;31.40;36.90
61386;DHT22;47256;18.904;-99.054;2023-03-23T00:21:35;31.30;37.70
61386;DHT22;47256;18.904;-99.054;2023-03-23T00:24:06;31.20;36.70
61386;DHT22;47256;18.904;-99.054;2023-03-23T00:26:36;31.10;36.40
61386;DHT22;47256;18.904;-99.054;2023-03-23T00:29:07;31.10;37.50
61386;DHT22;47256;18.904;-99.054;2023-03-23T00:31:41;31.00;38.70
61386;DHT22;47256;18.904;-99.054;2023-03-23T00:34:17;31.00;40.30
61386;DHT22;47256;18.904;-99.054;2023-03-23T00:36:49;31.00;40.30
61386;DHT22;47256;18.904;-99.054;2023-03-23T00:39:17;30.90;40.70
61386;DHT22;47256;18.904;-99.054;2023-03-23T00:41:47;30.80;41.30
61386;DHT22;47256;18.904;-99.054;2023-03-23T00:44:15;30.70;41.20
61386;DHT22;47256;18.904;-99.054;2023-03-23T00:46:45;30.70;41.40
61386;DHT22;47256;18.904;-99.054;2023-03-23T00:49:16;30.60;42.20
61386;DHT22;47256;18.904;-99.054;2023-03-23T00:51:45;30.50;42.10
61386;DHT22;47256;18.904;-99.054;2023-03-23T00:54:12;30.50;42.50
61386;DHT22;47256;18.904;-99.054;2023-03-23T00:56:40;30.40;42.40
61386;DHT22;47256;18.904;-99.054;2023-03-23T00:59:07;30.30;42.60
61386;DHT22;47256;18.904;-99.054;2023-03-23T01:01:34;30.20;47.50
61386;DHT22;47256;18.904;-99.054;2023-03-23T01:04:02;30.10;44.40
61386;DHT22;47256;18.904;-99.054;2023-03-23T01:06:33;30.00;44.80
61386;DHT22;47256;18.904;-99.054;2023-03-23T01:09:13;29.90;42.80
61386;DHT22;47256;18.904;-99.054;2023-03-23T01:11:45;29.80;43.20
61386;DHT22;47256;18.904;-99.054;2023-03-23T01:14:13;29.70;44.80
61386;DHT22;47256;18.904;-99.054;2023-03-23T01:16:43;29.60;44.30
61386;DHT22;47256;18.904;-99.054;2023-03-23T01:19:11;29.50;44.10
61386;DHT22;47256;18.904;-99.054;2023-03-23T01:21:38;29.50;44.30
61386;DHT22;47256;18.904;-99.054;2023-03-23T01:24:05;29.40;44.90
61386;DHT22;47256;18.904;-99.054;2023-03-23T01:26:32;29.40;44.00
61386;DHT22;47256;18.904;-99.054;2023-03-23T01:28:59;29.40;45.40
61386;DHT22;47256;18.904;-99.054;2023-03-23T01:31:27;29.40;43.70
61386;DHT22;47256;18.904;-99.054;2023-03-23T01:33:56;29.30;43.70
61386;DHT22;47256;18.904;-99.054;2023-03-23T01:36:25;29.30;43.70
61386;DHT22;47256;18.904;-99.054;2023-03-23T01:38:59;29.20;43.40
61386;DHT22;47256;18.904;-99.054;2023-03-23T01:41:31;29.20;42.60
61386;DHT22;47256;18.904;-99.054;2023-03-23T01:44:01;29.10;43.60
61386;DHT22;47256;18.904;-99.054;2023-03-23T01:46:32;29.10;43.90
61386;DHT22;47256;18.904;-99.054;2023-03-23T01:49:06;29.00;42.80
61386;DHT22;47256;18.904;-99.054;2023-03-23T01:51:36;29.00;42.50
61386;DHT22;47256;18.904;-99.054;2023-03-23T01:54:04;29.10;43.40
61386;DHT22;47256;18.904;-99.054;2023-03-23T01:56:36;28.90;43.90
61386;DHT22;47256;18.904;-99.054;2023-03-23T01:59:08;28.90;47.50
61386;DHT22;47256;18.904;-99.054;2023-03-23T02:01:38;28.70;45.80
61386;DHT22;47256;18.904;-99.054;2023-03-23T02:04:11;28.70;47.00
61386;DHT22;47256;18.904;-99.054;2023-03-23T02:06:41;28.50;47.50
61386;DHT22;47256;18.904;-99.054;2023-03-23T02:09:18;28.30;45.80
61386;DHT22;47256;18.904;-99.054;2023-03-23T02:11:47;28.10;48.80
61386;DHT22;47256;18.904;-99.054;2023-03-23T02:14:18;28.00;46.90
61386;DHT22;47256;18.904;-99.054;2023-03-23T02:27:17;28.10;44.60
61386;DHT22;47256;18.904;-99.054;2023-03-23T02:29:58;28.10;44.90
61386;DHT22;47256;18.904;-99.054;2023-03-23T02:32:36;28.20;45.60
61386;DHT22;47256;18.904;-99.054;2023-03-23T02:38:18;28.20;45.10
61386;DHT22;47256;18.904;-99.054;2023-03-23T02:40:49;28.20;45.20
61386;DHT22;47256;18.904;-99.054;2023-03-23T02:43:21;28.10;49.20
61386;DHT22;47256;18.904;-99.054;2023-03-23T02:45:51;27.80;47.90
61386;DHT22;47256;18.904;-99.054;2023-03-23T02:48:22;27.70;49.30
61386;DHT22;47256;18.904;-99.054;2023-03-23T02:50:52;27.70;47.20
61386;DHT22;47256;18.904;-99.054;2023-03-23T02:53:23;27.70;48.20
61386;DHT22;47256;18.904;-99.054;2023-03-23T02:55:53;27.60;48.60
61386;DHT22;47256;18.904;-99.054;2023-03-23T02:58:25;27.70;48.50
61386;DHT22;47256;18.904;-99.054;2023-03-23T03:00:54;27.70;48.10
61386;DHT22;47256;18.904;-99.054;2023-03-23T03:03:25;27.80;46.00
61386;DHT22;47256;18.904;-99.054;2023-03-23T03:06:09;27.70;45.20
61386;DHT22;47256;18.904;-99.054;2023-03-23T03:08:48;27.50;44.80
61386;DHT22;47256;18.904;-99.054;2023-03-23T03:11:19;27.30;44.10
61386;DHT22;47256;18.904;-99.054;2023-03-23T03:14:17;27.30;44.50
61386;DHT22;47256;18.904;-99.054;2023-03-23T03:17:03;27.20;44.00
61386;DHT22;47256;18.904;-99.054;2023-03-23T03:19:42;27.20;43.90
61386;DHT22;47256;18.904;-99.054;2023-03-23T03:22:17;27.20;43.70
61386;DHT22;47256;18.904;-99.054;2023-03-23T03:24:45;27.30;44.10
61386;DHT22;47256;18.904;-99.054;2023-03-23T03:27:18;27.30;45.70
61386;DHT22;47256;18.904;-99.054;2023-03-23T03:30:07;27.30;44.10
61386;DHT22;47256;18.904;-99.054;2023-03-23T03:32:44;27.30;46.00
61386;DHT22;47256;18.904;-99.054;2023-03-23T03:35:23;27.30;45.90
61386;DHT22;47256;18.904;-99.054;2023-03-23T03:37:54;27.10;44.80
61386;DHT22;47256;18.904;-99.054;2023-03-23T03:40:26;26.90;44.30
61386;DHT22;47256;18.904;-99.054;2023-03-23T03:42:55;26.80;47.90
61386;DHT22;47256;18.904;-99.054;2023-03-23T03:45:23;26.80;45.40
61386;DHT22;47256;18.904;-99.054;2023-03-23T03:47:51;26.70;46.40
61386;DHT22;47256;18.904;-99.054;2023-03-23T03:50:26;26.60;46.60
61386;DHT22;47256;18.904;-99.054;2023-03-23T03:52:58;26.40;45.30
61386;DHT22;47256;18.904;-99.054;2023-03-23T03:55:26;26.20;49.60
61386;DHT22;47256;18.904;-99.054;2023-03-23T03:57:56;26.20;46.00
61386;DHT22;47256;18.904;-99.054;2023-03-23T04:00:43;26.20;45.90
61386;DHT22;47256;18.904;-99.054;2023-03-23T04:03:19;26.30;48.80
61386;DHT22;47256;18.904;-99.054;2023-03-23T04:06:13;26.40;45.80
61386;DHT22;47256;18.904;-99.054;2023-03-23T04:08:40;26.50;47.00
61386;DHT22;47256;18.904;-99.054;2023-03-23T04:11:08;26.60;47.10
61386;DHT22;47256;18.904;-99.054;2023-03-23T04:13:40;26.60;46.70
61386;DHT22;47256;18.904;-99.054;2023-03-23T04:16:18;26.60;46.80
61386;DHT22;47256;18.904;-99.054;2023-03-23T04:18:46;26.60;49.20
61386;DHT22;47256;18.904;-99.054;2023-03-23T04:21:18;26.50;47.70
61386;DHT22;47256;18.904;-99.054;2023-03-23T04:23:47;26.50;46.30
61386;DHT22;47256;18.904;-99.054;2023-03-23T04:26:15;26.60;46.50
61386;DHT22;47256;18.904;-99.054;2023-03-23T04:28:46;26.60;46.60
61386;DHT22;47256;18.904;-99.054;2023-03-23T04:31:42;26.60;47.50
61386;DHT22;47256;18.904;-99.054;2023-03-23T04:34:28;26.40;47.10
61386;DHT22;47256;18.904;-99.054;2023-03-23T04:37:02;26.40;46.50
61386;DHT22;47256;18.904;-99.054;2023-03-23T04:39:35;26.40;46.60
61386;DHT22;47256;18.904;-99.054;2023-03-23T04:42:05;26.20;46.30
61386;DHT22;47256;18.904;-99.054;2023-03-23T04:44:52;26.10;46.40
61386;DHT22;47256;18.904;-99.054;2023-03-23T04:47:32;26.20;47.10
61386;DHT22;47256;18.904;-99.054;2023-03-23T04:50:02;26.30;46.90
61386;DHT22;47256;18.904;-99.054;2023-03-23T04:52:36;26.30;46.20
61386;DHT22;47256;18.904;-99.054;2023-03-23T04:55:14;26.40;47.30
61386;DHT22;47256;18.904;-99.054;2023-03-23T04:57:45;26.30;47.50
61386;DHT22;47256;18.904;-99.054;2023-03-23T05:00:35;26.30;47.00
61386;DHT22;47256;18.904;-99.054;2023-03-23T05:03:10;26.20;48.70
61386;DHT22;47256;18.904;-99.054;2023-03-23T05:05:37;26.10;48.00
61386;DHT22;47256;18.904;-99.054;2023-03-23T05:08:07;26.10;48.20
61386;DHT22;47256;18.904;-99.054;2023-03-23T05:10:37;25.90;46.90
61386;DHT22;47256;18.904;-99.054;2023-03-23T05:13:08;25.80;46.80
61386;DHT22;47256;18.904;-99.054;2023-03-23T05:15:37;25.80;47.80
61386;DHT22;47256;18.904;-99.054;2023-03-23T05:18:05;25.70;46.20
61386;DHT22;47256;18.904;-99.054;2023-03-23T05:20:33;25.80;45.00
61386;DHT22;47256;18.904;-99.054;2023-03-23T05:23:09;25.80;45.00
61386;DHT22;47256;18.904;-99.054;2023-03-23T05:25:38;25.80;46.50
61386;DHT22;47256;18.904;-99.054;2023-03-23T05:28:16;25.80;45.70
61386;DHT22;47256;18.904;-99.054;2023-03-23T05:31:08;25.80;46.30
61386;DHT22;47256;18.904;-99.054;2023-03-23T05:33:36;25.80;46.50
61386;DHT22;47256;18.904;-99.054;2023-03-23T05:36:24;25.70;47.80
61386;DHT22;47256;18.904;-99.054;2023-03-23T05:39:21;25.60;47.20
61386;DHT22;47256;18.904;-99.054;2023-03-23T05:42:06;25.40;48.60
61386;DHT22;47256;18.904;-99.054;2023-03-23T05:44:58;25.10;49.70
61386;DHT22;47256;18.904;-99.054;2023-03-23T05:47:25;25.10;47.80
61386;DHT22;47256;18.904;-99.054;2023-03-23T05:49:59;25.20;47.60
61386;DHT22;47256;18.904;-99.054;2023-03-23T05:52:29;25.20;47.40
61386;DHT22;47256;18.904;-99.054;2023-03-23T05:55:00;25.00;47.90
61386;DHT22;47256;18.904;-99.054;2023-03-23T05:57:30;25.00;48.30
61386;DHT22;47256;18.904;-99.054;2023-03-23T06:00:26;25.10;48.30
61386;DHT22;47256;18.904;-99.054;2023-03-23T06:03:12;25.10;47.20
61386;DHT22;47256;18.904;-99.054;2023-03-23T06:05:52;25.10;48.30
61386;DHT22;47256;18.904;-99.054;2023-03-23T06:08:30;25.00;50.00
61386;DHT22;47256;18.904;-99.054;2023-03-23T06:10:57;24.80;51.20
61386;DHT22;47256;18.904;-99.054;2023-03-23T06:13:25;24.60;51.40
61386;DHT22;47256;18.904;-99.054;2023-03-23T06:15:55;24.60;50.90
61386;DHT22;47256;18.904;-99.054;2023-03-23T06:18:50;24.50;50.50
61386;DHT22;47256;18.904;-99.054;2023-03-23T06:21:30;24.50;51.50
61386;DHT22;47256;18.904;-99.054;2023-03-23T06:24:22;24.40;49.80
61386;DHT22;47256;18.904;-99.054;2023-03-23T06:26:49;24.50;49.30
61386;DHT22;47256;18.904;-99.054;2023-03-23T06:29:21;24.60;51.00
61386;DHT22;47256;18.904;-99.054;2023-03-23T06:31:58;24.70;50.30
61386;DHT22;47256;18.904;-99.054;2023-03-23T06:34:28;24.70;50.20
61386;DHT22;47256;18.904;-99.054;2023-03-23T06:37:27;24.80;50.40
61386;DHT22;47256;18.904;-99.054;2023-03-23T06:40:07;24.80;50.30
61386;DHT22;47256;18.904;-99.054;2023-03-23T06:42:40;24.80;50.60
61386;DHT22;47256;18.904;-99.054;2023-03-23T06:45:27;24.80;51.20
61386;DHT22;47256;18.904;-99.054;2023-03-23T06:48:17;24.80;53.00
61386;DHT22;47256;18.904;-99.054;2023-03-23T06:50:45;24.70;51.90
61386;DHT22;47256;18.904;-99.054;2023-03-23T06:53:16;24.60;52.00
61386;DHT22;47256;18.904;-99.054;2023-03-23T06:55:44;24.60;52.50
61386;DHT22;47256;18.904;-99.054;2023-03-23T06:58:13;24.60;52.00
61386;DHT22;47256;18.904;-99.054;2023-03-23T07:00:40;24.60;50.80
61386;DHT22;47256;18.904;-99.054;2023-03-23T07:03:10;24.30;51.70
61386;DHT22;47256;18.904;-99.054;2023-03-23T07:05:38;24.20;51.60
61386;DHT22;47256;18.904;-99.054;2023-03-23T07:08:08;24.20;52.00
61386;DHT22;47256;18.904;-99.054;2023-03-23T07:10:40;24.20;52.00
61386;DHT22;47256;18.904;-99.054;2023-03-23T07:13:11;24.10;54.50
61386;DHT22;47256;18.904;-99.054;2023-03-23T07:15:48;24.10;52.80
61386;DHT22;47256;18.904;-99.054;2023-03-23T07:18:20;24.10;52.30
61386;DHT22;47256;18.904;-99.054;2023-03-23T07:20:52;24.10;52.50
61386;DHT22;47256;18.904;-99.054;2023-03-23T07:23:29;24.00;52.60
61386;DHT22;47256;18.904;-99.054;2023-03-23T07:26:19;24.00;53.50
61386;DHT22;47256;18.904;-99.054;2023-03-23T07:28:53;24.10;52.80
61386;DHT22;47256;18.904;-99.054;2023-03-23T07:31:28;24.10;53.20
61386;DHT22;47256;18.904;-99.054;2023-03-23T07:33:56;24.10;53.00
61386;DHT22;47256;18.904;-99.054;2023-03-23T07:36:30;24.10;53.40
61386;DHT22;47256;18.904;-99.054;2023-03-23T07:38:58;24.00;55.10
61386;DHT22;47256;18.904;-99.054;2023-03-23T07:41:28;24.00;52.60
61386;DHT22;47256;18.904;-99.054;2023-03-23T07:43:58;23.90;54.10
61386;DHT22;47256;18.904;-99.054;2023-03-23T07:46:34;23.80;53.40
61386;DHT22;47256;18.904;-99.054;2023-03-23T07:49:12;23.70;53.00
61386;DHT22;47256;18.904;-99.054;2023-03-23T07:51:58;23.70;53.20
61386;DHT22;47256;18.904;-99.054;2023-03-23T07:54:29;23.70;53.50
61386;DHT22;47256;18.904;-99.054;2023-03-23T07:57:02;23.60;55.00
61386;DHT22;47256;18.904;-99.054;2023-03-23T07:59:34;23.60;55.30
61386;DHT22;47256;18.904;-99.054;2023-03-23T08:02:03;23.50;54.00
61386;DHT22;47256;18.904;-99.054;2023-03-23T08:05:02;23.50;54.50
61386;DHT22;47256;18.904;-99.054;2023-03-23T08:07:44;23.50;55.30
61386;DHT22;47256;18.904;-99.054;2023-03-23T08:10:39;23.40;56.40
61386;DHT22;47256;18.904;-99.054;2023-03-23T08:13:29;23.20;56.10
61386;DHT22;47256;18.904;-99.054;2023-03-23T08:16:14;23.30;55.60
61386;DHT22;47256;18.904;-99.054;2023-03-23T08:19:00;23.30;55.90
61386;DHT22;47256;18.904;-99.054;2023-03-23T08:22:07;23.30;55.90
61386;DHT22;47256;18.904;-99.054;2023-03-23T08:24:57;23.40;55.60
61386;DHT22;47256;18.904;-99.054;2023-03-23T08:27:41;23.30;55.20
61386;DHT22;47256;18.904;-99.054;2023-03-23T08:30:18;23.20;55.70
61386;DHT22;47256;18.904;-99.054;2023-03-23T08:33:19;23.20;55.70
61386;DHT22;47256;18.904;-99.054;2023-03-23T08:36:11;23.20;55.20
61386;DHT22;47256;18.904;-99.054;2023-03-23T08:39:03;22.90;54.30
61386;DHT22;47256;18.904;-99.054;2023-03-23T08:42:00;22.90;52.60
61386;DHT22;47256;18.904;-99.054;2023-03-23T08:44:48;22.80;55.80
61386;DHT22;47256;18.904;-99.054;2023-03-23T08:47:34;22.80;56.30
61386;DHT22;47256;18.904;-99.054;2023-03-23T08:50:32;22.70;55.40
61386;DHT22;47256;18.904;-99.054;2023-03-23T08:53:28;22.60;57.00
61386;DHT22;47256;18.904;-99.054;2023-03-23T08:56:18;22.70;57.00
61386;DHT22;47256;18.904;-99.054;2023-03-23T08:59:12;22.60;57.10
61386;DHT22;47256;18.904;-99.054;2023-03-23T09:01:56;22.70;57.40
61386;DHT22;47256;18.904;-99.054;2023-03-23T09:04:33;22.70;57.50
61386;DHT22;47256;18.904;-99.054;2023-03-23T09:07:19;22.80;56.20
61386;DHT22;47256;18.904;-99.054;2023-03-23T09:09:46;22.70;56.70
61386;DHT22;47256;18.904;-99.054;2023-03-23T09:12:16;22.70;56.40
61386;DHT22;47256;18.904;-99.054;2023-03-23T09:14:43;22.60;56.20
61386;DHT22;47256;18.904;-99.054;2023-03-23T09:17:12;22.60;55.90
61386;DHT22;47256;18.904;-99.054;2023-03-23T09:19:41;22.50;56.50
61386;DHT22;47256;18.904;-99.054;2023-03-23T09:22:07;22.40;58.30
61386;DHT22;47256;18.904;-99.054;2023-03-23T09:24:34;22.40;57.50
61386;DHT22;47256;18.904;-99.054;2023-03-23T09:27:01;22.40;57.40
61386;DHT22;47256;18.904;-99.054;2023-03-23T09:29:29;22.30;56.80
61386;DHT22;47256;18.904;-99.054;2023-03-23T09:31:56;22.20;57.70
61386;DHT22;47256;18.904;-99.054;2023-03-23T09:34:24;22.10;58.30
61386;DHT22;47256;18.904;-99.054;2023-03-23T09:36:53;22.10;57.40
61386;DHT22;47256;18.904;-99.054;2023-03-23T09:39:21;22.10;57.90
61386;DHT22;47256;18.904;-99.054;2023-03-23T09:50:26;22.20;57.10
61386;DHT22;47256;18.904;-99.054;2023-03-23T09:53:15;22.10;58.20
61386;DHT22;47256;18.904;-99.054;2023-03-23T09:55:43;22.00;58.60
61386;DHT22;47256;18.904;-99.054;2023-03-23T09:58:19;21.80;58.20
61386;DHT22;47256;18.904;-99.054;2023-03-23T10:00:52;21.90;57.20
61386;DHT22;47256;18.904;-99.054;2023-03-23T10:03:21;22.00;57.00
61386;DHT22;47256;18.904;-99.054;2023-03-23T10:05:50;21.90;56.80
61386;DHT22;47256;18.904;-99.054;2023-03-23T10:08:21;22.00;57.80
61386;DHT22;47256;18.904;-99.054;2023-03-23T10:16:20;22.20;57.10
61386;DHT22;47256;18.904;-99.054;2023-03-23T10:18:50;22.10;57.60
61386;DHT22;47256;18.904;-99.054;2023-03-23T10:21:23;22.00;57.90
61386;DHT22;47256;18.904;-99.054;2023-03-23T10:26:27;21.90;58.20
61386;DHT22;47256;18.904;-99.054;2023-03-23T10:29:07;21.80;58.10
61386;DHT22;47256;18.904;-99.054;2023-03-23T10:31:39;21.80;58.50
61386;DHT22;47256;18.904;-99.054;2023-03-23T10:39:49;21.70;58.20
61386;DHT22;47256;18.904;-99.054;2023-03-23T10:42:31;21.70;58.90
61386;DHT22;47256;18.904;-99.054;2023-03-23T10:45:00;21.70;59.00
61386;DHT22;47256;18.904;-99.054;2023-03-23T10:47:26;21.70;59.00
61386;DHT22;47256;18.904;-99.054;2023-03-23T10:50:04;21.70;59.30
61386;DHT22;47256;18.904;-99.054;2023-03-23T10:52:33;21.70;59.30
61386;DHT22;47256;18.904;-99.054;2023-03-23T10:57:32;21.70;59.40
61386;DHT22;47256;18.904;-99.054;2023-03-23T11:00:06;21.70;59.20
61386;DHT22;47256;18.904;-99.054;2023-03-23T11:02:44;21.60;59.00
61386;DHT22;47256;18.904;-99.054;2023-03-23T11:08:03;21.60;60.00
61386;DHT22;47256;18.904;-99.054;2023-03-23T11:13:02;21.60;59.80
61386;DHT22;47256;18.904;-99.054;2023-03-23T11:15:33;21.60;60.10
61386;DHT22;47256;18.904;-99.054;2023-03-23T11:18:04;21.50;60.20
61386;DHT22;47256;18.904;-99.054;2023-03-23T11:20:37;21.30;55.60
61386;DHT22;47256;18.904;-99.054;2023-03-23T11:25:50;21.00;55.30
61386;DHT22;47256;18.904;-99.054;2023-03-23T11:28:20;21.00;57.10
61386;DHT22;47256;18.904;-99.054;2023-03-23T11:30:47;21.10;57.40
61386;DHT22;47256;18.904;-99.054;2023-03-23T11:33:15;21.20;57.90
61386;DHT22;47256;18.904;-99.054;2023-03-23T11:35:43;21.30;58.30
61386;DHT22;47256;18.904;-99.054;2023-03-23T11:38:17;21.30;58.00
61386;DHT22;47256;18.904;-99.054;2023-03-23T11:40:50;21.20;58.40
61386;DHT22;47256;18.904;-99.054;2023-03-23T11:43:24;21.10;58.10
61386;DHT22;47256;18.904;-99.054;2023-03-23T11:46:14;21.00;59.50
61386;DHT22;47256;18.904;-99.054;2023-03-23T11:48:59;21.00;58.80
61386;DHT22;47256;18.904;-99.054;2023-03-23T11:56:47;21.10;58.80
61386;DHT22;47256;18.904;-99.054;2023-03-23T11:59:34;21.10;59.00
61386;DHT22;47256;18.904;-99.054;2023-03-23T12:04:53;21.00;60.50
61386;DHT22;47256;18.904;-99.054;2023-03-23T12:08:08;21.00;60.60
61386;DHT22;47256;18.904;-99.054;2023-03-23T12:26:22;20.90;60.40
61386;DHT22;47256;18.904;-99.054;2023-03-23T12:36:58;20.90;60.30
61386;DHT22;47256;18.904;-99.054;2023-03-23T12:47:43;20.40;59.10
61386;DHT22;47256;18.904;-99.054;2023-03-23T12:50:22;20.20;59.00
61386;DHT22;47256;18.904;-99.054;2023-03-23T12:53:16;20.20;60.50
61386;DHT22;47256;18.904;-99.054;2023-03-23T12:55:45;20.30;60.90
61386;DHT22;47256;18.904;-99.054;2023-03-23T12:58:27;20.30;60.50
61386;DHT22;47256;18.904;-99.054;2023-03-23T13:11:35;20.30;61.60
61386;DHT22;47256;18.904;-99.054;2023-03-23T13:14:10;20.30;61.00
61386;DHT22;47256;18.904;-99.054;2023-03-23T13:16:49;20.40;60.80
61386;DHT22;47256;18.904;-99.054;2023-03-23T13:19:51;20.40;60.70
61386;DHT22;47256;18.904;-99.054;2023-03-23T13:28:14;20.80;60.40
61386;DHT22;47256;18.904;-99.054;2023-03-23T13:30:52;20.80;61.10
61386;DHT22;47256;18.904;-99.054;2023-03-23T13:33:20;20.90;60.10
61386;DHT22;47256;18.904;-99.054;2023-03-23T13:35:48;21.20;62.70
61386;DHT22;47256;18.904;-99.054;2023-03-23T13:38:26;21.60;61.20
61386;DHT22;47256;18.904;-99.054;2023-03-23T13:40:56;21.70;61.60
61386;DHT22;47256;18.904;-99.054;2023-03-23T13:43:28;21.70;61.20
61386;DHT22;47256;18.904;-99.054;2023-03-23T13:46:06;21.80;60.40
61386;DHT22;47256;18.904;-99.054;2023-03-23T13:48:41;21.70;59.80
61386;DHT22;47256;18.904;-99.054;2023-03-23T13:54:14;21.80;59.30
61386;DHT22;47256;18.904;-99.054;2023-03-23T13:56:47;21.80;59.60
61386;DHT22;47256;18.904;-99.054;2023-03-23T13:59:35;21.90;60.70
61386;DHT22;47256;18.904;-99.054;2023-03-23T14:05:08;22.10;59.10
61386;DHT22;47256;18.904;-99.054;2023-03-23T14:07:55;22.20;60.30
61386;DHT22;47256;18.904;-99.054;2023-03-23T14:10:35;22.30;58.60
61386;DHT22;47256;18.904;-99.054;2023-03-23T14:13:06;22.40;58.80
61386;DHT22;47256;18.904;-99.054;2023-03-23T14:15:44;22.60;59.80
61386;DHT22;47256;18.904;-99.054;2023-03-23T14:18:14;22.70;60.60
61386;DHT22;47256;18.904;-99.054;2023-03-23T14:20:42;22.90;60.20
61386;DHT22;47256;18.904;-99.054;2023-03-23T14:23:16;22.90;59.90
61386;DHT22;47256;18.904;-99.054;2023-03-23T14:25:44;23.00;59.00
61386;DHT22;47256;18.904;-99.054;2023-03-23T14:28:17;23.10;58.10
61386;DHT22;47256;18.904;-99.054;2023-03-23T14:30:44;23.20;57.50
61386;DHT22;47256;18.904;-99.054;2023-03-23T14:33:13;23.30;58.40
61386;DHT22;47256;18.904;-99.054;2023-03-23T14:35:40;23.40;58.40
61386;DHT22;47256;18.904;-99.054;2023-03-23T14:38:26;23.50;58.00
61386;DHT22;47256;18.904;-99.054;2023-03-23T14:41:03;23.60;57.50
61386;DHT22;47256;18.904;-99.054;2023-03-23T14:43:32;23.70;59.50
61386;DHT22;47256;18.904;-99.054;2023-03-23T14:46:05;23.80;57.20
61386;DHT22;47256;18.904;-99.054;2023-03-23T14:48:35;24.00;56.70
61386;DHT22;47256;18.904;-99.054;2023-03-23T14:51:05;24.20;55.10
61386;DHT22;47256;18.904;-99.054;2023-03-23T14:53:35;24.30;57.00
61386;DHT22;47256;18.904;-99.054;2023-03-23T14:56:08;24.50;57.30
61386;DHT22;47256;18.904;-99.054;2023-03-23T14:58:36;24.70;54.90
61386;DHT22;47256;18.904;-99.054;2023-03-23T15:01:09;24.80;55.30
61386;DHT22;47256;18.904;-99.054;2023-03-23T15:03:41;25.00;54.60
61386;DHT22;47256;18.904;-99.054;2023-03-23T15:06:16;25.10;53.50
61386;DHT22;47256;18.904;-99.054;2023-03-23T15:08:44;25.20;54.40
61386;DHT22;47256;18.904;-99.054;2023-03-23T15:11:13;25.20;53.50
61386;DHT22;47256;18.904;-99.054;2023-03-23T15:13:45;25.20;53.40
61386;DHT22;47256;18.904;-99.054;2023-03-23T15:16:17;25.20;54.00
61386;DHT22;47256;18.904;-99.054;2023-03-23T15:18:51;25.20;53.80
61386;DHT22;47256;18.904;-99.054;2023-03-23T15:21:22;25.20;53.00
61386;DHT22;47256;18.904;-99.054;2023-03-23T15:23:51;25.20;52.20
61386;DHT22;47256;18.904;-99.054;2023-03-23T15:26:26;25.30;51.10
61386;DHT22;47256;18.904;-99.054;2023-03-23T15:29:11;25.20;51.70
61386;DHT22;47256;18.904;-99.054;2023-03-23T15:31:48;25.20;52.20
61386;DHT22;47256;18.904;-99.054;2023-03-23T15:34:24;25.30;51.50
61386;DHT22;47256;18.904;-99.054;2023-03-23T15:37:13;25.30;51.80
61386;DHT22;47256;18.904;-99.054;2023-03-23T15:39:45;25.40;52.00
61386;DHT22;47256;18.904;-99.054;2023-03-23T15:42:23;25.50;52.60
61386;DHT22;47256;18.904;-99.054;2023-03-23T15:44:57;25.60;51.90
61386;DHT22;47256;18.904;-99.054;2023-03-23T15:47:34;25.80;52.80
61386;DHT22;47256;18.904;-99.054;2023-03-23T15:50:08;26.00;51.00
61386;DHT22;47256;18.904;-99.054;2023-03-23T15:52:35;26.30;51.30
61386;DHT22;47256;18.904;-99.054;2023-03-23T15:55:03;26.50;50.80
61386;DHT22;47256;18.904;-99.054;2023-03-23T15:57:34;26.80;50.40
61386;DHT22;47256;18.904;-99.054;2023-03-23T16:00:03;27.00;48.20
61386;DHT22;47256;18.904;-99.054;2023-03-23T16:02:37;27.20;46.50
61386;DHT22;47256;18.904;-99.054;2023-03-23T16:05:04;27.40;47.40
61386;DHT22;47256;18.904;-99.054;2023-03-23T16:07:34;27.50;47.30
61386;DHT22;47256;18.904;-99.054;2023-03-23T16:10:01;27.70;47.80
61386;DHT22;47256;18.904;-99.054;2023-03-23T16:12:28;27.90;48.10
61386;DHT22;47256;18.904;-99.054;2023-03-23T16:14:56;28.00;49.80
61386;DHT22;47256;18.904;-99.054;2023-03-23T16:17:23;28.20;48.80
61386;DHT22;47256;18.904;-99.054;2023-03-23T16:19:50;28.30;48.90
61386;DHT22;47256;18.904;-99.054;2023-03-23T16:22:17;28.50;49.60
61386;DHT22;47256;18.904;-99.054;2023-03-23T16:24:43;28.70;52.70
61386;DHT22;47256;18.904;-99.054;2023-03-23T16:27:11;28.90;50.80
61386;DHT22;47256;18.904;-99.054;2023-03-23T16:29:38;29.10;52.30
61386;DHT22;47256;18.904;-99.054;2023-03-23T16:32:05;29.20;52.50
61386;DHT22;47256;18.904;-99.054;2023-03-23T16:34:31;29.30;51.30
61386;DHT22;47256;18.904;-99.054;2023-03-23T16:37:03;29.40;48.70
61386;DHT22;47256;18.904;-99.054;2023-03-23T16:39:32;29.60;48.60
61386;DHT22;47256;18.904;-99.054;2023-03-23T16:41:58;29.70;51.60
61386;DHT22;47256;18.904;-99.054;2023-03-23T16:44:26;29.80;50.20
61386;DHT22;47256;18.904;-99.054;2023-03-23T16:46:52;29.90;52.40
61386;DHT22;47256;18.904;-99.054;2023-03-23T16:49:21;30.10;52.10
61386;DHT22;47256;18.904;-99.054;2023-03-23T16:51:51;30.10;51.20
61386;DHT22;47256;18.904;-99.054;2023-03-23T16:54:21;30.20;52.70
61386;DHT22;47256;18.904;-99.054;2023-03-23T16:56:48;30.30;54.80
61386;DHT22;47256;18.904;-99.054;2023-03-23T16:59:15;30.50;53.90
61386;DHT22;47256;18.904;-99.054;2023-03-23T17:01:42;30.60;53.10
61386;DHT22;47256;18.904;-99.054;2023-03-23T17:04:09;30.80;54.80
61386;DHT22;47256;18.904;-99.054;2023-03-23T17:06:37;31.00;50.90
61386;DHT22;47256;18.904;-99.054;2023-03-23T17:09:04;31.00;49.60
61386;DHT22;47256;18.904;-99.054;2023-03-23T17:11:31;30.90;52.20
61386;DHT22;47256;18.904;-99.054;2023-03-23T17:13:58;31.00;48.40
61386;DHT22;47256;18.904;-99.054;2023-03-23T17:16:25;31.20;49.00
61386;DHT22;47256;18.904;-99.054;2023-03-23T17:18:54;31.30;47.50
61386;DHT22;47256;18.904;-99.054;2023-03-23T17:21:22;31.30;50.10
61386;DHT22;47256;18.904;-99.054;2023-03-23T17:23:51;31.50;49.70
61386;DHT22;47256;18.904;-99.054;2023-03-23T17:26:17;31.80;50.10
61386;DHT22;47256;18.904;-99.054;2023-03-23T17:28:44;31.90;50.50
61386;DHT22;47256;18.904;-99.054;2023-03-23T17:31:11;32.10;49.70
61386;DHT22;47256;18.904;-99.054;2023-03-23T17:33:38;32.00;47.50